Aviation Digital Data Service (ADDS)

Output produced by METARs form (0423 UTC 24 January 2019)
found at http://www.aviationweather.gov/metar/data/
 
Forecast for: EHBK (ZUID-LIMBURG/BEE, NL)
Text: TAF EHBK 232319Z 2400/2506 04005KT 8000 OVC018
Forecast period: 0000 to 1800 UTC 24 January 2019
Forecast type: FROM: standard forecast or significant change
Winds: from the NE (40 degrees) at 6 MPH (5 knots; 2.6 m/s)
Visibility: 5 miles (8 km)
Ceiling: 1800 feet AGL
Clouds: overcast cloud deck at 1800 feet AGL
Weather: no significant weather forecast for this period
Text: PROB40 2402/2409 4000 BR
Forecast period: 0200 to 0900 UTC 24 January 2019
Forecast type: PROBABLE: 40 percent likelihood of the following during this time
Visibility: 2.49 miles (4.01 km)
Ceiling: unknown
Clouds: missing
Weather: BR  (mist)
Text: BECMG 2418/2421 4000 BR
Forecast period: 1800 UTC 24 January 2019 to 0600 UTC 25 January 2019
Forecast type: BECOMING: Conditions expected to become as follows by 2100 UTC 24 January 2019
Winds: from the NE (40 degrees) at 6 MPH (5 knots; 2.6 m/s)
Visibility: 2.49 miles (4.01 km)
Ceiling: 1800 feet AGL
Clouds: overcast cloud deck at 1800 feet AGL
Weather: BR  (mist)
Text: PROB30 2502/2506 0600 FZFG
Forecast period: 0200 to 0600 UTC 25 January 2019
Forecast type: PROBABLE: 30 percent likelihood of the following during this time
Visibility: 0.37 miles (0.60 km)
Ceiling: unknown
Clouds: missing
Weather: FZFG  (freezing fog)